Time;durP1;ratioP1;P1;durP2;ratioP2;P2;SDS_P1;SDS_P2;PMS_P1;PMS_P2;Temp;Humidity;BMP_temperature;BMP_pressure;BME280_temperature;BME280_humidity;BME280_pressure;Samples;Min_cycle;Max_cycle;Signal;HPM_P1;HPM_P2
2022/09/18 00:01:00;;;;;;;5.07;1.60;;;;;;;11.11;100.00;99763.22;5073150;22;20060;-66
2022/09/18 00:03:27;;;;;;;4.00;1.25;;;;;;;11.04;100.00;99764.63;5039833;28;20216;-66
2022/09/18 00:05:54;;;;;;;6.50;1.35;;;;;;;11.00;100.00;99767.63;5048868;28;20412;-67
2022/09/18 00:08:22;;;;;;;2.65;1.30;;;;;;;10.94;100.00;99768.88;5032204;28;20712;-68
2022/09/18 00:10:49;;;;;;;3.53;1.25;;;;;;;10.93;100.00;99764.59;5049415;28;20047;-66
2022/09/18 00:13:18;;;;;;;4.85;1.30;;;;;;;10.82;100.00;99765.38;5011133;28;20044;-64
2022/09/18 00:15:53;;;;;;;6.57;1.70;;;;;;;10.74;100.00;99769.53;5028522;28;20114;-66
2022/09/18 00:18:21;;;;;;;5.00;1.45;;;;;;;10.68;100.00;99770.00;5012852;28;20060;-66
2022/09/18 00:20:48;;;;;;;5.68;1.83;;;;;;;10.69;100.00;99774.28;5018645;28;20397;-67
2022/09/18 00:23:15;;;;;;;4.05;1.55;;;;;;;10.68;100.00;99767.34;5026616;28;20153;-64
2022/09/18 00:25:42;;;;;;;3.15;1.30;;;;;;;10.80;100.00;99769.06;5004260;28;20045;-67
2022/09/18 00:28:09;;;;;;;4.45;1.33;;;;;;;10.75;100.00;99771.19;5029908;28;20049;-66
2022/09/18 00:30:36;;;;;;;3.08;1.23;;;;;;;10.63;100.00;99768.53;5019981;28;20080;-66
2022/09/18 00:33:03;;;;;;;2.20;1.20;;;;;;;10.65;100.00;99763.97;5027138;28;20049;-67
2022/09/18 00:35:31;;;;;;;2.92;1.27;;;;;;;10.64;100.00;99769.38;5028814;28;20068;-67
2022/09/18 00:37:58;;;;;;;3.08;1.65;;;;;;;10.68;100.00;99770.00;5021059;28;20041;-67
2022/09/18 00:40:25;;;;;;;2.40;1.25;;;;;;;10.69;100.00;99767.22;5041544;28;20477;-67
2022/09/18 00:42:52;;;;;;;5.28;1.40;;;;;;;10.70;100.00;99778.59;5027930;28;20049;-67
2022/09/18 00:45:20;;;;;;;2.80;1.10;;;;;;;10.68;100.00;99768.19;5011859;28;20042;-64
2022/09/18 00:47:48;;;;;;;2.55;1.08;;;;;;;10.65;100.00;99777.13;5025318;28;20046;-68
2022/09/18 00:50:23;;;;;;;4.20;1.40;;;;;;;10.55;100.00;99770.88;4995380;28;20053;-67
2022/09/18 00:53:00;;;;;;;2.03;1.10;;;;;;;10.52;100.00;99778.97;5011706;28;20536;-68
2022/09/18 00:55:31;;;;;;;4.50;1.30;;;;;;;10.52;100.00;99773.72;5028135;28;20053;-67
2022/09/18 00:58:00;;;;;;;2.13;1.15;;;;;;;10.51;100.00;99769.41;5011259;28;20607;-68
2022/09/18 01:00:28;;;;;;;3.00;1.00;;;;;;;10.54;100.00;99771.81;5028710;28;20049;-68
2022/09/18 01:02:55;;;;;;;3.17;0.93;;;;;;;10.54;100.00;99777.09;5036923;28;20425;-67
2022/09/18 01:05:41;;;;;;;4.97;0.80;;;;;;;10.72;100.00;99779.34;5024735;28;20385;-67
2022/09/18 01:08:14;;;;;;;;;;;;;;;10.60;100.00;99779.28;4990751;28;20053;-68
2022/09/18 01:11:06;;;;;;;2.22;1.00;;;;;;;10.48;100.00;99774.88;5031229;28;21436;-68
2022/09/18 01:13:47;;;;;;;2.35;0.95;;;;;;;10.46;100.00;99786.50;5013198;28;20049;-67
2022/09/18 01:16:21;;;;;;;1.92;0.80;;;;;;;10.47;100.00;99786.38;5011278;28;20049;-67
2022/09/18 01:18:48;;;;;;;2.03;0.77;;;;;;;10.43;100.00;99778.81;5008833;28;20405;-67
2022/09/18 01:21:19;;;;;;;3.63;0.90;;;;;;;10.42;100.00;99787.66;5023435;28;20064;-67
2022/09/18 01:24:08;;;;;;;1.35;0.63;;;;;;;10.34;100.00;99778.50;5005283;28;20137;-66
2022/09/18 01:26:48;;;;;;;2.30;0.90;;;;;;;10.39;100.00;99783.44;5039664;28;20397;-68
2022/09/18 01:29:30;;;;;;;1.10;0.60;;;;;;;10.36;100.00;99786.31;5028051;28;20145;-67
2022/09/18 01:32:09;;;;;;;0.30;0.30;;;;;;;10.34;100.00;99782.94;5009628;28;20060;-67
2022/09/18 01:35:12;;;;;;;1.10;0.80;;;;;;;10.39;100.00;99788.69;5024589;28;20053;-66
2022/09/18 01:38:09;;;;;;;2.38;1.00;;;;;;;10.29;100.00;99782.41;5022202;28;20049;-67
2022/09/18 01:40:48;;;;;;;2.17;0.55;;;;;;;10.27;100.00;99793.06;5009778;28;20433;-68
2022/09/18 01:43:17;;;;;;;2.65;0.50;;;;;;;10.26;100.00;99785.25;5007760;28;20061;-67
2022/09/18 01:45:47;;;;;;;0.90;0.40;;;;;;;10.25;100.00;99797.56;5010288;28;20051;-67
2022/09/18 01:48:26;;;;;;;0.95;0.60;;;;;;;10.21;100.00;99795.25;5014779;28;20083;-68
2022/09/18 01:50:58;;;;;;;1.85;0.57;;;;;;;10.20;100.00;99790.94;5015446;28;20080;-67
2022/09/18 01:53:53;;;;;;;1.73;0.50;;;;;;;10.19;100.00;99792.72;5035643;28;20057;-67
2022/09/18 01:56:27;;;;;;;0.70;0.60;;;;;;;10.25;100.00;99788.84;4994084;28;20049;-68
2022/09/18 01:58:56;;;;;;;0.40;0.40;;;;;;;10.27;100.00;99797.50;5004411;28;20060;-67
2022/09/18 02:01:28;;;;;;;1.70;0.70;;;;;;;10.23;100.00;99791.56;5019101;28;20488;-68
2022/09/18 02:03:59;;;;;;;0.82;0.45;;;;;;;10.17;100.00;99794.59;5013495;28;20079;-65
2022/09/18 02:06:31;;;;;;;1.25;0.70;;;;;;;10.10;100.00;99796.84;5046411;28;20140;-68
2022/09/18 02:08:59;;;;;;;0.50;0.50;;;;;;;10.08;100.00;99790.84;5014415;28;20061;-68
2022/09/18 02:11:26;;;;;;;1.60;0.57;;;;;;;10.04;100.00;99799.03;5014369;28;20068;-66
2022/09/18 02:14:04;;;;;;;2.60;0.50;;;;;;;10.01;100.00;99802.75;5017331;28;20041;-66
2022/09/18 02:16:41;;;;;;;0.85;0.40;;;;;;;10.05;100.00;99803.38;5018947;28;20099;-67
2022/09/18 02:19:17;;;;;;;0.77;0.50;;;;;;;9.99;100.00;99798.53;5039499;28;20060;-67
2022/09/18 02:21:44;;;;;;;;;;;;;;;10.02;100.00;99804.41;5017234;28;20468;-65
2022/09/18 02:24:14;;;;;;;0.63;0.40;;;;;;;10.03;100.00;99803.47;5014818;28;19920;-68
2022/09/18 02:26:41;;;;;;;2.55;0.60;;;;;;;10.12;100.00;99808.09;5031795;28;20049;-69
2022/09/18 02:29:11;;;;;;;1.90;0.68;;;;;;;10.12;100.00;99794.94;5014181;28;20050;-67
2022/09/18 02:31:39;;;;;;;3.22;1.00;;;;;;;10.20;100.00;99807.56;5039282;28;20044;-69
2022/09/18 02:34:07;;;;;;;1.40;0.50;;;;;;;10.13;100.00;99808.91;5025603;28;20058;-69
2022/09/18 02:36:47;;;;;;;1.98;0.80;;;;;;;10.18;100.00;99805.97;5012387;28;20164;-68
2022/09/18 02:39:44;;;;;;;2.28;0.75;;;;;;;10.23;100.00;99803.88;5031052;28;20053;-68
2022/09/18 02:42:29;;;;;;;2.00;0.70;;;;;;;10.10;100.00;99811.78;5031883;28;20049;-68
2022/09/18 02:45:22;;;;;;;2.90;0.80;;;;;;;10.03;100.00;99813.16;5013570;28;20409;-69
2022/09/18 02:48:20;;;;;;;2.00;1.25;;;;;;;10.02;100.00;99811.47;5011244;28;20829;-68
2022/09/18 02:51:01;;;;;;;3.08;0.85;;;;;;;10.06;100.00;99808.53;5028474;28;20072;-68
2022/09/18 02:53:42;;;;;;;6.15;1.35;;;;;;;10.05;100.00;99804.22;4996723;28;20431;-68
2022/09/18 02:56:16;;;;;;;6.93;0.98;;;;;;;10.06;100.00;99818.19;5026816;28;20091;-67
2022/09/18 02:58:52;;;;;;;7.63;2.03;;;;;;;10.07;100.00;99814.63;5011627;28;20050;-66
2022/09/18 03:01:19;;;;;;;;;;;;;;;10.05;100.00;99812.09;5017529;28;21126;-66
2022/09/18 03:03:46;;;;;;;7.72;2.03;;;;;;;10.05;100.00;99821.78;5012492;28;20346;-67
2022/09/18 03:06:14;;;;;;;6.57;2.00;;;;;;;9.98;100.00;99818.72;5014981;28;20049;-66
2022/09/18 03:08:41;;;;;;;6.47;1.55;;;;;;;10.06;100.00;99826.94;5023833;28;20057;-67
2022/09/18 03:11:08;;;;;;;7.35;2.60;;;;;;;10.02;100.00;99824.63;5031567;28;20077;-66
2022/09/18 03:13:35;;;;;;;10.27;1.70;;;;;;;9.96;100.00;99823.25;5031029;28;20072;-67
2022/09/18 03:16:02;;;;;;;9.70;1.77;;;;;;;9.98;100.00;99823.97;5023850;28;20388;-65
2022/09/18 03:18:30;;;;;;;11.05;1.75;;;;;;;9.96;100.00;99828.53;5013980;28;20529;-68
2022/09/18 03:20:57;;;;;;;10.80;2.13;;;;;;;9.95;100.00;99825.97;5013383;28;20100;-68
2022/09/18 03:23:24;;;;;;;15.65;2.95;;;;;;;9.94;100.00;99834.81;5029051;28;20049;-67
2022/09/18 03:25:51;;;;;;;11.77;2.35;;;;;;;9.95;100.00;99826.84;5019066;28;20057;-67
2022/09/18 03:28:18;;;;;;;16.38;2.25;;;;;;;9.95;100.00;99847.00;5029694;28;20053;-67
2022/09/18 03:30:47;;;;;;;17.77;2.75;;;;;;;9.85;100.00;99849.44;5029363;28;20378;-67
2022/09/18 03:33:14;;;;;;;15.70;2.83;;;;;;;9.81;100.00;99846.16;5028256;28;20076;-66
2022/09/18 03:35:42;;;;;;;9.30;1.80;;;;;;;9.81;100.00;99846.16;5024375;28;20140;-67
2022/09/18 03:38:09;;;;;;;15.38;2.47;;;;;;;9.90;100.00;99847.31;5034890;28;20053;-68
2022/09/18 03:40:37;;;;;;;13.57;3.03;;;;;;;9.94;100.00;99851.44;5012930;28;20532;-68
2022/09/18 03:43:04;;;;;;;12.05;2.17;;;;;;;9.96;100.00;99849.56;5023138;28;20520;-68
2022/09/18 03:45:31;;;;;;;16.92;2.47;;;;;;;9.86;100.00;99859.88;5029420;28;20068;-68
2022/09/18 03:47:58;;;;;;;15.93;2.53;;;;;;;9.96;100.00;99865.34;5013662;28;20065;-68
2022/09/18 03:50:25;;;;;;;23.02;2.83;;;;;;;9.89;100.00;99862.25;5029638;28;20425;-68
2022/09/18 03:52:53;;;;;;;22.02;4.70;;;;;;;9.83;100.00;99870.56;5012537;28;20081;-68
2022/09/18 03:55:21;;;;;;;19.95;3.03;;;;;;;9.81;100.00;99867.19;5029908;28;20068;-67
2022/09/18 03:57:49;;;;;;;16.52;3.55;;;;;;;9.79;100.00;99861.22;5025795;28;20060;-67
2022/09/18 04:00:17;;;;;;;15.38;3.55;;;;;;;9.74;100.00;99867.72;5012510;28;20049;-67
2022/09/18 04:02:44;;;;;;;11.68;2.38;;;;;;;9.69;100.00;99872.47;5029403;28;20037;-68
2022/09/18 04:05:12;;;;;;;13.73;3.35;;;;;;;9.71;100.00;99868.78;5030087;28;20045;-68
2022/09/18 04:07:39;;;;;;;17.05;3.15;;;;;;;9.69;100.00;99872.47;5029850;28;20616;-68
2022/09/18 04:10:06;;;;;;;18.92;2.92;;;;;;;9.71;100.00;99871.41;5026997;28;20132;-68
2022/09/18 04:12:34;;;;;;;11.82;2.97;;;;;;;9.77;100.00;99875.38;5025100;28;20068;-68
2022/09/18 04:15:01;;;;;;;16.33;3.60;;;;;;;9.87;100.00;99873.84;5014463;28;20061;-65
2022/09/18 04:17:28;;;;;;;15.05;3.20;;;;;;;9.73;100.00;99874.78;5036723;28;20063;-67
2022/09/18 04:19:55;;;;;;;16.63;3.40;;;;;;;9.75;100.00;99886.03;5034622;28;20049;-67
2022/09/18 04:22:22;;;;;;;18.85;4.05;;;;;;;9.74;100.00;99883.50;5023904;28;20390;-64
2022/09/18 04:24:49;;;;;;;20.42;4.40;;;;;;;9.74;100.00;99876.47;5027193;28;20061;-66
2022/09/18 04:27:16;;;;;;;15.07;3.05;;;;;;;9.72;100.00;99883.59;5028877;28;20057;-68
2022/09/18 04:29:43;;;;;;;17.08;3.28;;;;;;;9.75;100.00;99895.69;5021361;28;20054;-67
2022/09/18 04:32:11;;;;;;;14.48;3.95;;;;;;;9.70;100.00;99896.00;5024591;28;20056;-68
2022/09/18 04:34:38;;;;;;;15.60;3.72;;;;;;;9.77;100.00;99901.69;5012106;28;20053;-67
2022/09/18 04:37:05;;;;;;;18.00;3.78;;;;;;;9.67;100.00;99906.72;5034779;28;20052;-68
2022/09/18 04:39:36;;;;;;;22.98;4.20;;;;;;;9.57;100.00;99893.34;5023270;28;20240;-68
2022/09/18 04:42:04;;;;;;;15.93;4.22;;;;;;;9.60;100.00;99895.78;5027570;28;20410;-67
2022/09/18 04:44:31;;;;;;;15.90;4.20;;;;;;;9.55;100.00;99891.78;5028525;28;20136;-66
2022/09/18 04:46:58;;;;;;;18.40;3.60;;;;;;;9.55;100.00;99899.66;5023723;28;20061;-68
2022/09/18 04:49:25;;;;;;;16.80;4.07;;;;;;;9.52;100.00;99910.38;5005894;28;20083;-68
2022/09/18 04:51:52;;;;;;;15.43;3.67;;;;;;;9.50;100.00;99910.47;5029197;28;20056;-66
2022/09/18 04:54:19;;;;;;;19.90;5.15;;;;;;;9.51;100.00;99898.19;5028469;28;20045;-68
2022/09/18 04:56:46;;;;;;;13.30;5.30;;;;;;;9.51;100.00;99896.38;5029409;28;20052;-65
2022/09/18 04:59:13;;;;;;;18.83;5.85;;;;;;;9.49;100.00;99900.06;5021079;28;20445;-67
2022/09/18 05:01:41;;;;;;;13.85;4.28;;;;;;;9.47;100.00;99904.56;5018189;28;20073;-67
2022/09/18 05:04:08;;;;;;;18.60;4.70;;;;;;;9.49;100.00;99915.81;5022253;28;20065;-67
2022/09/18 05:06:35;;;;;;;17.20;4.05;;;;;;;9.42;100.00;99912.75;5025901;28;20053;-66
2022/09/18 05:09:02;;;;;;;12.10;3.30;;;;;;;9.41;100.00;99921.59;5008008;28;20057;-68
2022/09/18 05:11:29;;;;;;;13.15;3.50;;;;;;;9.47;100.00;99925.59;5021324;28;20076;-66
2022/09/18 05:13:57;;;;;;;13.05;3.53;;;;;;;9.41;100.00;99934.72;5030388;28;20405;-67
2022/09/18 05:16:24;;;;;;;17.23;3.83;;;;;;;9.44;100.00;99916.13;5027226;28;20049;-68
2022/09/18 05:18:51;;;;;;;13.38;3.20;;;;;;;9.47;100.00;99921.19;5029622;28;20469;-66
2022/09/18 05:21:19;;;;;;;17.55;3.95;;;;;;;9.44;100.00;99929.25;5012143;28;20052;-67
2022/09/18 05:23:46;;;;;;;14.93;3.90;;;;;;;9.52;100.00;99920.88;5020402;28;20041;-65
2022/09/18 05:26:13;;;;;;;10.25;2.78;;;;;;;9.46;100.00;99911.63;5011530;28;20267;-66
2022/09/18 05:28:41;;;;;;;10.95;2.53;;;;;;;9.50;100.00;99920.13;5018648;28;20049;-68
2022/09/18 05:31:08;;;;;;;13.65;2.72;;;;;;;9.51;100.00;99916.56;5033620;28;20540;-68
2022/09/18 05:33:35;;;;;;;11.55;2.42;;;;;;;9.44;100.00;99900.34;5032583;28;20045;-69
2022/09/18 05:36:04;;;;;;;14.10;2.45;;;;;;;9.41;100.00;99925.97;5029648;28;20057;-70
2022/09/18 05:38:31;;;;;;;8.65;2.33;;;;;;;9.36;100.00;99940.25;5047914;28;20073;-69
2022/09/18 05:41:00;;;;;;;8.00;1.77;;;;;;;9.41;100.00;99931.22;5022040;28;20049;-66
2022/09/18 05:43:28;;;;;;;11.65;3.25;;;;;;;9.42;100.00;99943.44;5017326;28;20068;-68
2022/09/18 05:45:55;;;;;;;9.50;2.00;;;;;;;9.37;100.00;99947.22;5030222;28;20037;-67
2022/09/18 05:48:23;;;;;;;14.10;3.15;;;;;;;9.37;100.00;99947.22;5048318;28;20084;-66
2022/09/18 05:50:50;;;;;;;13.40;2.47;;;;;;;9.37;100.00;99951.63;5029944;28;20049;-70
2022/09/18 05:53:20;;;;;;;21.23;2.63;;;;;;;9.22;100.00;99942.09;5033265;28;20057;-68
2022/09/18 05:55:47;;;;;;;13.45;2.47;;;;;;;9.22;100.00;99942.94;5025659;28;20060;-68
2022/09/18 05:58:16;;;;;;;12.45;2.47;;;;;;;9.24;100.00;99956.81;5016124;28;20064;-70
2022/09/18 06:00:47;;;;;;;12.55;2.47;;;;;;;9.19;100.00;99955.44;5011415;28;20432;-68
2022/09/18 06:03:15;;;;;;;11.93;2.58;;;;;;;9.19;100.00;99969.41;5037139;23;20045;-71
2022/09/18 06:05:43;;;;;;;11.52;3.13;;;;;;;9.16;100.00;99956.47;5029142;28;20537;-72
2022/09/18 06:08:11;;;;;;;13.90;2.75;;;;;;;9.15;100.00;99956.56;5019912;28;20042;-72
2022/09/18 06:10:39;;;;;;;10.45;2.20;;;;;;;9.12;100.00;99955.81;5044845;28;20072;-71
2022/09/18 06:13:09;;;;;;;12.02;2.30;;;;;;;9.20;100.00;99962.38;4997251;28;20109;-72
2022/09/18 06:15:36;;;;;;;14.10;2.80;;;;;;;9.17;100.00;99955.50;5015209;28;20060;-72
2022/09/18 06:18:04;;;;;;;16.27;2.78;;;;;;;9.19;100.00;99960.69;5024789;28;20049;-73
2022/09/18 06:20:31;;;;;;;14.10;2.45;;;;;;;9.19;100.00;99955.44;4996219;28;20056;-71
2022/09/18 06:22:59;;;;;;;15.38;3.78;;;;;;;9.24;100.00;99962.06;5007720;28;20090;-72
2022/09/18 06:25:27;;;;;;;13.93;2.15;;;;;;;9.32;100.00;99956.31;4994458;28;20045;-72
2022/09/18 06:27:57;;;;;;;9.57;2.10;;;;;;;9.30;100.00;99959.03;5019932;28;20529;-70
2022/09/18 06:30:26;;;;;;;8.25;2.67;;;;;;;9.28;100.00;99949.59;5002326;28;20129;-69
2022/09/18 06:32:55;;;;;;;11.60;2.85;;;;;;;9.29;100.00;99962.63;5016951;28;20060;-69
2022/09/18 06:35:28;;;;;;;15.40;2.47;;;;;;;9.40;100.00;99959.28;5012287;28;20060;-69
2022/09/18 06:38:00;;;;;;;11.65;2.63;;;;;;;9.36;100.00;99960.44;5015436;28;20045;-70
2022/09/18 06:40:27;;;;;;;14.55;2.22;;;;;;;9.36;100.00;99963.88;5026362;28;20057;-71
2022/09/18 06:42:56;;;;;;;13.70;2.63;;;;;;;9.42;100.00;99970.56;5016109;28;20049;-71
2022/09/18 06:45:24;;;;;;;12.82;3.00;;;;;;;9.48;100.00;99972.78;5015468;28;20041;-71
2022/09/18 06:47:54;;;;;;;11.32;2.22;;;;;;;9.47;100.00;99973.72;5005574;28;20337;-69
2022/09/18 06:50:22;;;;;;;18.95;3.42;;;;;;;9.49;99.48;99978.88;5021418;28;20537;-70
2022/09/18 06:52:49;;;;;;;14.50;2.90;;;;;;;9.52;99.13;99979.53;5002069;28;21178;-70
2022/09/18 06:55:17;;;;;;;11.80;2.55;;;;;;;9.51;99.80;99977.84;5014023;28;20101;-70
2022/09/18 06:57:53;;;;;;;14.20;2.50;;;;;;;9.57;100.00;99980.06;5021791;28;20132;-69
2022/09/18 07:00:20;;;;;;;;;;;;;;;9.68;98.55;99986.41;4993790;28;20508;-70
2022/09/18 07:02:54;;;;;;;16.92;3.28;;;;;;;9.60;98.17;99976.41;5026921;28;20371;-70
2022/09/18 07:05:21;;;;;;;12.60;2.50;;;;;;;9.61;98.65;99984.19;5010280;28;20099;-70
2022/09/18 07:07:48;;;;;;;13.00;2.63;;;;;;;9.70;98.79;99982.75;5010790;28;20071;-70
2022/09/18 07:10:15;;;;;;;12.40;2.30;;;;;;;9.62;97.12;99975.34;5010762;28;20052;-70
2022/09/18 07:12:47;;;;;;;17.70;3.05;;;;;;;9.64;98.00;99989.25;5008426;28;20053;-70
2022/09/18 07:15:15;;;;;;;11.48;2.70;;;;;;;9.77;96.83;99991.03;5022742;28;20304;-70
2022/09/18 07:17:42;;;;;;;12.57;2.28;;;;;;;9.89;94.99;99998.13;5002397;28;20049;-70
2022/09/18 07:20:10;;;;;;;13.60;2.20;;;;;;;9.80;94.66;99996.13;5003155;28;20053;-69
2022/09/18 07:22:38;;;;;;;10.68;2.15;;;;;;;9.83;95.83;100003.81;5016404;28;20142;-70
2022/09/18 07:25:11;;;;;;;12.82;2.53;;;;;;;9.83;94.96;99991.50;5004812;28;20056;-71
2022/09/18 07:27:38;;;;;;;10.80;3.03;;;;;;;9.89;94.80;99987.63;5015347;28;20353;-71
2022/09/18 07:30:05;;;;;;;12.65;2.10;;;;;;;10.03;94.08;100005.94;4996661;28;20041;-70
2022/09/18 07:32:34;;;;;;;14.73;2.05;;;;;;;10.01;93.20;99986.81;5011137;28;20061;-71
2022/09/18 07:35:01;;;;;;;9.40;2.28;;;;;;;10.10;93.07;99998.50;4995280;28;20038;-71
2022/09/18 07:37:28;;;;;;;13.18;2.10;;;;;;;10.13;93.45;99985.13;4996231;28;20068;-71
2022/09/18 07:39:55;;;;;;;16.05;2.08;;;;;;;10.21;92.54;99990.72;5013457;28;20054;-70
2022/09/18 07:42:22;;;;;;;11.10;2.55;;;;;;;10.24;90.85;99990.56;5012809;28;20504;-70
2022/09/18 07:44:52;;;;;;;13.25;2.42;;;;;;;10.21;91.16;99998.63;5009917;22;20140;-65
2022/09/18 07:47:20;;;;;;;8.82;1.92;;;;;;;10.25;91.06;100000.13;4987161;28;20049;-62
2022/09/18 07:49:47;;;;;;;11.65;2.30;;;;;;;10.37;90.87;99993.22;5006437;28;20137;-63
2022/09/18 07:52:14;;;;;;;9.48;2.03;;;;;;;10.40;90.03;100006.13;4996265;28;20527;-63
2022/09/18 07:54:41;;;;;;;6.97;1.52;;;;;;;10.46;88.96;100016.25;4988637;28;20062;-63
2022/09/18 07:57:08;;;;;;;9.20;1.98;;;;;;;10.46;88.77;99989.09;4998808;28;20141;-65
2022/09/18 07:59:35;;;;;;;10.38;1.98;;;;;;;10.60;87.27;100007.41;4977865;28;20055;-66
2022/09/18 08:02:04;;;;;;;12.00;2.50;;;;;;;10.54;86.49;99998.16;4997302;28;20065;-63
2022/09/18 08:04:31;;;;;;;8.82;1.77;;;;;;;10.47;86.85;99998.69;4995556;28;20150;-63
2022/09/18 08:07:02;;;;;;;11.57;2.13;;;;;;;10.42;87.64;99985.00;4994662;28;20414;-63
2022/09/18 08:09:30;;;;;;;9.55;1.92;;;;;;;10.61;86.76;99993.31;4994122;28;20077;-64
2022/09/18 08:11:57;;;;;;;9.02;2.40;;;;;;;10.70;86.30;99984.75;4994457;28;20066;-64
2022/09/18 08:14:24;;;;;;;10.43;2.33;;;;;;;10.74;85.03;99994.13;4987483;28;20408;-64
2022/09/18 08:16:55;;;;;;;10.18;1.77;;;;;;;10.83;85.19;100008.44;5001316;28;20048;-63
2022/09/18 08:19:22;;;;;;;10.27;1.58;;;;;;;10.89;84.49;99998.31;4996758;28;20050;-64
2022/09/18 08:21:49;;;;;;;8.75;1.75;;;;;;;10.86;85.38;100009.09;4995125;28;20052;-63
2022/09/18 08:24:16;;;;;;;11.15;2.28;;;;;;;10.87;84.59;99994.97;4977920;28;20079;-64
2022/09/18 08:26:43;;;;;;;9.32;2.03;;;;;;;10.82;84.41;100004.16;5000687;28;20053;-63
2022/09/18 08:29:17;;;;;;;11.70;2.20;;;;;;;10.82;84.13;100001.50;4975252;28;20149;-64
2022/09/18 08:31:45;;;;;;;14.48;1.83;;;;;;;10.83;84.15;99985.59;4999031;28;20129;-64
2022/09/18 08:34:13;;;;;;;9.00;1.98;;;;;;;10.93;83.66;99993.69;4988195;28;20053;-64
2022/09/18 08:36:40;;;;;;;12.27;2.28;;;;;;;10.91;83.56;99990.34;4996499;28;20069;-63
2022/09/18 08:39:07;;;;;;;13.25;3.15;;;;;;;10.97;83.98;99986.41;4990711;28;20070;-64
2022/09/18 08:41:52;;;;;;;11.23;1.88;;;;;;;11.08;83.71;99991.78;4999693;28;20063;-64
2022/09/18 08:44:30;;;;;;;9.50;1.80;;;;;;;11.05;82.62;99987.56;4992620;28;20065;-64
2022/09/18 08:47:02;;;;;;;7.95;1.80;;;;;;;11.21;82.21;99999.63;4990937;28;20059;-64
2022/09/18 08:49:33;;;;;;;9.18;1.75;;;;;;;11.20;82.03;99992.69;5003528;28;20055;-64
2022/09/18 08:52:12;;;;;;;12.23;2.03;;;;;;;11.31;80.88;100006.78;4978453;28;20411;-64
2022/09/18 08:54:49;;;;;;;12.77;2.10;;;;;;;11.34;81.24;99989.88;4983494;28;20077;-64
2022/09/18 08:57:22;;;;;;;10.95;2.15;;;;;;;11.37;80.28;100003.69;4968530;28;20066;-64
2022/09/18 08:59:58;;;;;;;12.05;1.95;;;;;;;11.38;80.93;100009.81;4978195;28;20754;-64
2022/09/18 09:02:34;;;;;;;10.10;1.98;;;;;;;11.47;79.66;99998.59;4978053;28;20060;-63
2022/09/18 09:05:05;;;;;;;11.63;3.05;;;;;;;11.48;78.90;99988.88;4971511;28;20052;-63
2022/09/18 09:08:06;;;;;;;6.68;1.83;;;;;;;11.68;78.95;99990.09;4996657;28;20054;-64
2022/09/18 09:10:58;;;;;;;9.98;1.52;;;;;;;11.71;78.58;99993.34;4990458;28;20554;-64
2022/09/18 09:13:35;;;;;;;15.38;2.33;;;;;;;11.72;78.04;99988.91;4970774;28;20054;-64
2022/09/18 09:16:15;;;;;;;12.60;2.08;;;;;;;11.74;78.57;99986.97;4971938;28;20046;-64
2022/09/18 09:18:49;;;;;;;14.27;2.03;;;;;;;11.73;77.66;99988.78;4977241;28;20054;-63
2022/09/18 09:21:22;;;;;;;10.30;2.13;;;;;;;11.73;76.95;99990.59;4978454;28;20057;-64
2022/09/18 09:24:16;;;;;;;9.18;2.20;;;;;;;11.79;76.13;99980.41;4991963;28;20057;-64
2022/09/18 09:26:43;;;;;;;10.10;2.25;;;;;;;11.73;75.18;99988.78;4984517;28;20050;-65
2022/09/18 09:29:30;;;;;;;11.95;2.00;;;;;;;11.90;75.20;99985.78;4977975;28;20053;-64
2022/09/18 09:32:03;;;;;;;11.00;1.92;;;;;;;12.01;75.49;99979.69;4969471;28;20446;-64
2022/09/18 09:34:39;;;;;;;8.38;1.65;;;;;;;12.13;74.98;99989.31;4987101;28;20495;-64
2022/09/18 09:37:12;;;;;;;16.40;2.60;;;;;;;12.08;74.08;99969.53;4976755;28;20133;-64
2022/09/18 09:39:45;;;;;;;7.43;1.40;;;;;;;12.04;74.11;99978.63;4979174;28;20057;-64
2022/09/18 09:42:24;;;;;;;8.43;1.60;;;;;;;12.14;74.50;99976.97;4980857;28;20141;-64
2022/09/18 09:44:54;;;;;;;8.65;1.33;;;;;;;12.22;74.36;99979.03;4972639;28;20080;-64
2022/09/18 09:47:44;;;;;;;13.70;2.67;;;;;;;12.33;74.74;99979.03;4986793;28;20733;-64
2022/09/18 09:50:25;;;;;;;8.25;1.98;;;;;;;12.47;74.04;99977.97;4994699;28;20046;-65
2022/09/18 09:52:56;;;;;;;6.50;1.65;;;;;;;12.57;72.94;99973.69;4987294;28;20065;-64
2022/09/18 09:55:28;;;;;;;8.55;1.52;;;;;;;12.58;70.56;99970.09;4983101;28;20058;-63
2022/09/18 09:58:02;;;;;;;8.30;1.98;;;;;;;12.67;69.74;99979.94;4969816;28;20161;-64
2022/09/18 10:00:48;;;;;;;6.80;1.67;;;;;;;12.62;70.25;99980.28;4999382;28;20054;-64
2022/09/18 10:03:52;;;;;;;6.78;1.17;;;;;;;12.52;69.87;99995.16;4989615;28;20069;-63
2022/09/18 10:06:53;;;;;;;8.15;2.00;;;;;;;12.40;71.88;99993.47;4989714;28;20407;-64
2022/09/18 10:09:38;;;;;;;4.82;1.08;;;;;;;12.19;73.04;100001.19;4975709;28;20049;-64
2022/09/18 10:12:46;;;;;;;5.55;1.00;;;;;;;12.03;74.56;99990.13;4978278;28;20534;-64
2022/09/18 10:15:25;;;;;;;13.73;1.67;;;;;;;11.98;75.79;99987.84;4995574;28;20053;-65
2022/09/18 10:17:56;;;;;;;6.47;1.20;;;;;;;12.15;76.84;99994.47;4960074;28;20050;-64
2022/09/18 10:20:28;;;;;;;13.00;2.00;;;;;;;12.32;76.19;99983.47;4975321;28;20058;-64
2022/09/18 10:22:59;;;;;;;12.95;1.98;;;;;;;12.36;74.78;99989.38;4973959;28;20118;-64
2022/09/18 10:25:34;;;;;;;7.63;1.90;;;;;;;12.55;74.23;99984.34;4981514;28;20054;-64
2022/09/18 10:28:01;;;;;;;14.93;2.60;;;;;;;12.73;73.98;99999.72;4972617;28;20054;-63
2022/09/18 10:30:28;;;;;;;11.05;1.42;;;;;;;12.81;73.40;99986.78;4995284;28;20108;-64
2022/09/18 10:32:55;;;;;;;9.02;2.05;;;;;;;12.89;71.62;99982.56;4976680;28;20042;-63
2022/09/18 10:35:28;;;;;;;5.85;1.35;;;;;;;12.86;70.32;99971.41;4990137;28;20054;-63
2022/09/18 10:37:56;;;;;;;4.63;1.50;;;;;;;12.80;70.51;99974.53;4991028;28;20076;-64
2022/09/18 10:40:32;;;;;;;7.03;1.23;;;;;;;12.65;71.10;99990.63;4989862;28;20507;-63
2022/09/18 10:43:00;;;;;;;6.90;1.33;;;;;;;12.59;72.31;99977.88;4994744;28;20061;-63
2022/09/18 10:45:28;;;;;;;8.88;1.60;;;;;;;12.72;70.97;99971.66;4994780;28;20054;-64
2022/09/18 10:48:12;;;;;;;7.68;1.90;;;;;;;12.84;70.09;99962.78;4974023;28;20072;-63
2022/09/18 10:50:54;;;;;;;6.90;1.20;;;;;;;12.97;68.71;99963.47;4972491;28;20055;-63
2022/09/18 10:53:29;;;;;;;6.80;1.23;;;;;;;13.13;68.29;99952.50;4987286;28;20545;-64
2022/09/18 10:56:03;;;;;;;5.28;1.33;;;;;;;13.26;67.72;99949.75;4990958;28;20051;-64
2022/09/18 10:58:32;;;;;;;9.90;1.58;;;;;;;13.30;66.90;99957.31;4988603;28;20121;-63
2022/09/18 11:01:04;;;;;;;7.63;1.52;;;;;;;13.13;65.17;99963.91;4992393;28;20053;-64
2022/09/18 11:03:39;;;;;;;6.20;1.30;;;;;;;13.03;65.44;99962.16;4976214;28;20552;-63
2022/09/18 11:06:15;;;;;;;7.90;2.33;;;;;;;12.96;65.51;99971.50;4979482;28;20047;-64
2022/09/18 11:08:46;;;;;;;5.00;1.67;;;;;;;12.97;66.12;99955.56;4977692;28;20130;-63
2022/09/18 11:11:26;;;;;;;13.82;1.80;;;;;;;13.23;67.17;99963.22;4995645;28;20054;-64
2022/09/18 11:14:03;;;;;;;10.02;1.65;;;;;;;13.43;65.89;99951.88;4988722;28;20144;-64
2022/09/18 11:16:34;;;;;;;6.82;1.60;;;;;;;13.74;65.55;99952.00;4975373;28;20064;-64
2022/09/18 11:19:05;;;;;;;6.40;1.45;;;;;;;13.87;64.60;99940.28;4981382;28;20156;-65
2022/09/18 11:21:49;;;;;;;3.20;0.88;;;;;;;13.97;64.74;99956.22;5002608;28;20046;-63
2022/09/18 11:24:25;;;;;;;8.15;1.98;;;;;;;13.89;64.25;99945.44;4978171;28;20472;-64
2022/09/18 11:26:56;;;;;;;;;;;;;;;13.69;64.42;99947.09;4984704;28;20057;-64
2022/09/18 11:29:30;;;;;;;8.93;1.55;;;;;;;13.50;62.79;99976.84;4988975;28;20382;-64
2022/09/18 11:32:16;;;;;;;7.13;0.95;;;;;;;13.10;61.76;99956.25;4990889;28;20049;-64
2022/09/18 11:34:49;;;;;;;5.07;1.10;;;;;;;12.83;64.10;99963.72;4989585;28;20061;-64
2022/09/18 11:37:36;;;;;;;7.35;1.20;;;;;;;12.65;66.64;99958.94;4990471;28;20410;-64
2022/09/18 11:40:07;;;;;;;5.95;1.50;;;;;;;12.50;67.76;99957.47;4965390;28;20643;-65
2022/09/18 11:42:45;;;;;;;5.13;1.13;;;;;;;12.55;69.07;99955.31;4970762;28;20054;-64
2022/09/18 11:45:44;;;;;;;7.28;1.10;;;;;;;12.75;68.23;99958.22;4980631;28;20042;-64
2022/09/18 11:48:49;;;;;;;7.32;1.55;;;;;;;13.06;66.35;99946.06;4965914;28;20051;-64
2022/09/18 11:51:25;;;;;;;4.95;1.25;;;;;;;13.36;63.52;99945.41;4931811;28;20061;-64